sensor_id;sensor_type;location;lat;lon;timestamp;P1;durP1;ratioP1;P2;durP2;ratioP2
3487;SDS011;38546;48.170;11.724;2023-07-30T00:01:32;2.03;;;1.93;;
3487;SDS011;38546;48.170;11.724;2023-07-30T00:04:22;2.33;;;2.23;;
3487;SDS011;38546;48.170;11.724;2023-07-30T00:07:12;2.60;;;2.40;;
3487;SDS011;38546;48.170;11.724;2023-07-30T00:10:01;3.40;;;2.60;;
3487;SDS011;38546;48.170;11.724;2023-07-30T00:12:51;2.80;;;2.60;;
3487;SDS011;38546;48.170;11.724;2023-07-30T00:15:40;2.93;;;2.10;;
3487;SDS011;38546;48.170;11.724;2023-07-30T00:18:30;6.77;;;2.60;;
3487;SDS011;38546;48.170;11.724;2023-07-30T00:21:19;2.60;;;2.50;;
3487;SDS011;38546;48.170;11.724;2023-07-30T00:24:08;2.40;;;2.20;;
3487;SDS011;38546;48.170;11.724;2023-07-30T00:26:57;2.50;;;2.40;;
3487;SDS011;38546;48.170;11.724;2023-07-30T00:29:47;2.70;;;2.50;;
3487;SDS011;38546;48.170;11.724;2023-07-30T00:32:36;4.20;;;2.10;;
3487;SDS011;38546;48.170;11.724;2023-07-30T00:35:29;3.37;;;3.07;;
3487;SDS011;38546;48.170;11.724;2023-07-30T00:38:19;2.53;;;2.40;;
3487;SDS011;38546;48.170;11.724;2023-07-30T00:41:08;2.00;;;1.90;;
3487;SDS011;38546;48.170;11.724;2023-07-30T00:43:58;2.57;;;2.40;;
3487;SDS011;38546;48.170;11.724;2023-07-30T00:46:47;3.47;;;2.90;;
3487;SDS011;38546;48.170;11.724;2023-07-30T00:49:37;2.37;;;2.27;;
3487;SDS011;38546;48.170;11.724;2023-07-30T00:52:27;2.10;;;1.90;;
3487;SDS011;38546;48.170;11.724;2023-07-30T00:55:17;2.53;;;2.33;;
3487;SDS011;38546;48.170;11.724;2023-07-30T00:58:06;2.87;;;2.67;;
3487;SDS011;38546;48.170;11.724;2023-07-30T01:00:58;3.20;;;2.60;;
3487;SDS011;38546;48.170;11.724;2023-07-30T01:03:48;2.77;;;2.30;;
3487;SDS011;38546;48.170;11.724;2023-07-30T01:06:38;3.07;;;2.77;;
3487;SDS011;38546;48.170;11.724;2023-07-30T01:09:27;2.40;;;2.20;;
3487;SDS011;38546;48.170;11.724;2023-07-30T01:12:17;3.00;;;2.57;;
3487;SDS011;38546;48.170;11.724;2023-07-30T01:15:07;3.67;;;2.87;;
3487;SDS011;38546;48.170;11.724;2023-07-30T01:17:58;2.53;;;2.33;;
3487;SDS011;38546;48.170;11.724;2023-07-30T01:20:47;2.60;;;2.40;;
3487;SDS011;38546;48.170;11.724;2023-07-30T01:23:37;2.93;;;2.73;;
3487;SDS011;38546;48.170;11.724;2023-07-30T01:26:30;2.47;;;2.27;;
3487;SDS011;38546;48.170;11.724;2023-07-30T01:29:27;2.47;;;2.27;;
3487;SDS011;38546;48.170;11.724;2023-07-30T01:32:42;2.43;;;2.33;;
3487;SDS011;38546;48.170;11.724;2023-07-30T01:35:33;2.30;;;2.10;;
3487;SDS011;38546;48.170;11.724;2023-07-30T01:38:26;2.77;;;2.57;;
3487;SDS011;38546;48.170;11.724;2023-07-30T01:41:15;2.93;;;2.70;;
3487;SDS011;38546;48.170;11.724;2023-07-30T01:44:05;2.90;;;2.70;;
3487;SDS011;38546;48.170;11.724;2023-07-30T01:46:54;4.10;;;2.80;;
3487;SDS011;38546;48.170;11.724;2023-07-30T01:49:43;3.30;;;2.63;;
3487;SDS011;38546;48.170;11.724;2023-07-30T01:52:32;3.67;;;2.63;;
3487;SDS011;38546;48.170;11.724;2023-07-30T01:55:22;2.73;;;2.53;;
3487;SDS011;38546;48.170;11.724;2023-07-30T01:58:12;2.70;;;2.50;;
3487;SDS011;38546;48.170;11.724;2023-07-30T02:01:02;2.73;;;2.60;;
3487;SDS011;38546;48.170;11.724;2023-07-30T02:03:51;2.67;;;2.47;;
3487;SDS011;38546;48.170;11.724;2023-07-30T02:06:40;3.07;;;2.77;;
3487;SDS011;38546;48.170;11.724;2023-07-30T02:09:29;2.93;;;2.80;;
3487;SDS011;38546;48.170;11.724;2023-07-30T02:12:18;2.80;;;2.60;;
3487;SDS011;38546;48.170;11.724;2023-07-30T02:15:08;3.90;;;2.67;;
3487;SDS011;38546;48.170;11.724;2023-07-30T02:17:58;2.83;;;2.63;;
3487;SDS011;38546;48.170;11.724;2023-07-30T02:20:47;2.53;;;2.33;;
3487;SDS011;38546;48.170;11.724;2023-07-30T02:23:36;3.10;;;2.90;;
3487;SDS011;38546;48.170;11.724;2023-07-30T02:26:25;3.17;;;2.97;;
3487;SDS011;38546;48.170;11.724;2023-07-30T02:29:14;2.90;;;2.70;;
3487;SDS011;38546;48.170;11.724;2023-07-30T02:32:04;5.33;;;3.63;;
3487;SDS011;38546;48.170;11.724;2023-07-30T02:34:54;2.90;;;2.70;;
3487;SDS011;38546;48.170;11.724;2023-07-30T02:37:44;3.00;;;2.90;;
3487;SDS011;38546;48.170;11.724;2023-07-30T02:40:33;7.90;;;3.40;;
3487;SDS011;38546;48.170;11.724;2023-07-30T02:43:22;3.53;;;3.23;;
3487;SDS011;38546;48.170;11.724;2023-07-30T02:46:11;3.83;;;3.53;;
3487;SDS011;38546;48.170;11.724;2023-07-30T02:49:00;5.20;;;3.80;;
3487;SDS011;38546;48.170;11.724;2023-07-30T02:51:50;6.13;;;3.40;;
3487;SDS011;38546;48.170;11.724;2023-07-30T02:54:39;4.20;;;3.63;;
3487;SDS011;38546;48.170;11.724;2023-07-30T02:57:28;4.30;;;3.90;;
3487;SDS011;38546;48.170;11.724;2023-07-30T03:00:18;5.30;;;3.70;;
3487;SDS011;38546;48.170;11.724;2023-07-30T03:03:07;4.23;;;3.83;;
3487;SDS011;38546;48.170;11.724;2023-07-30T03:05:56;4.57;;;3.97;;
3487;SDS011;38546;48.170;11.724;2023-07-30T03:08:46;4.00;;;3.70;;
3487;SDS011;38546;48.170;11.724;2023-07-30T03:11:35;4.23;;;3.93;;
3487;SDS011;38546;48.170;11.724;2023-07-30T03:14:24;5.23;;;4.30;;
3487;SDS011;38546;48.170;11.724;2023-07-30T03:17:14;4.67;;;4.13;;
3487;SDS011;38546;48.170;11.724;2023-07-30T03:20:03;6.77;;;4.37;;
3487;SDS011;38546;48.170;11.724;2023-07-30T03:22:54;6.60;;;4.50;;
3487;SDS011;38546;48.170;11.724;2023-07-30T03:25:44;5.83;;;4.10;;
3487;SDS011;38546;48.170;11.724;2023-07-30T03:28:33;4.77;;;3.83;;
3487;SDS011;38546;48.170;11.724;2023-07-30T03:31:23;4.47;;;4.07;;
3487;SDS011;38546;48.170;11.724;2023-07-30T03:34:12;4.83;;;4.43;;
3487;SDS011;38546;48.170;11.724;2023-07-30T03:37:01;5.47;;;4.87;;
3487;SDS011;38546;48.170;11.724;2023-07-30T03:39:50;4.80;;;4.30;;
3487;SDS011;38546;48.170;11.724;2023-07-30T03:42:39;5.00;;;4.33;;
3487;SDS011;38546;48.170;11.724;2023-07-30T03:45:29;4.77;;;4.27;;
3487;SDS011;38546;48.170;11.724;2023-07-30T03:48:18;5.60;;;4.70;;
3487;SDS011;38546;48.170;11.724;2023-07-30T03:51:07;5.67;;;5.07;;
3487;SDS011;38546;48.170;11.724;2023-07-30T03:53:57;7.03;;;4.90;;
3487;SDS011;38546;48.170;11.724;2023-07-30T03:56:46;5.47;;;4.97;;
3487;SDS011;38546;48.170;11.724;2023-07-30T03:59:35;5.43;;;4.73;;
3487;SDS011;38546;48.170;11.724;2023-07-30T04:02:25;6.30;;;5.47;;
3487;SDS011;38546;48.170;11.724;2023-07-30T04:05:14;6.60;;;4.97;;
3487;SDS011;38546;48.170;11.724;2023-07-30T04:08:04;7.30;;;5.70;;
3487;SDS011;38546;48.170;11.724;2023-07-30T04:10:53;5.97;;;5.13;;
3487;SDS011;38546;48.170;11.724;2023-07-30T04:13:42;6.77;;;5.77;;
3487;SDS011;38546;48.170;11.724;2023-07-30T04:16:32;5.90;;;5.03;;
3487;SDS011;38546;48.170;11.724;2023-07-30T04:19:21;8.93;;;5.10;;
3487;SDS011;38546;48.170;11.724;2023-07-30T04:22:10;6.17;;;5.20;;
3487;SDS011;38546;48.170;11.724;2023-07-30T04:24:59;8.93;;;6.17;;
3487;SDS011;38546;48.170;11.724;2023-07-30T04:27:49;5.17;;;4.67;;
3487;SDS011;38546;48.170;11.724;2023-07-30T04:30:38;5.63;;;5.13;;
3487;SDS011;38546;48.170;11.724;2023-07-30T04:33:27;6.20;;;5.57;;
3487;SDS011;38546;48.170;11.724;2023-07-30T04:36:17;9.10;;;5.80;;
3487;SDS011;38546;48.170;11.724;2023-07-30T04:39:06;6.50;;;5.00;;
3487;SDS011;38546;48.170;11.724;2023-07-30T04:41:56;6.00;;;5.40;;
3487;SDS011;38546;48.170;11.724;2023-07-30T04:44:46;8.83;;;6.37;;
3487;SDS011;38546;48.170;11.724;2023-07-30T04:47:35;6.63;;;5.37;;
3487;SDS011;38546;48.170;11.724;2023-07-30T04:50:24;7.23;;;5.00;;
3487;SDS011;38546;48.170;11.724;2023-07-30T04:53:13;6.13;;;5.57;;
3487;SDS011;38546;48.170;11.724;2023-07-30T04:56:03;8.40;;;5.63;;
3487;SDS011;38546;48.170;11.724;2023-07-30T04:58:53;6.57;;;5.90;;
3487;SDS011;38546;48.170;11.724;2023-07-30T05:01:43;5.33;;;4.83;;
3487;SDS011;38546;48.170;11.724;2023-07-30T05:04:32;6.00;;;5.40;;
3487;SDS011;38546;48.170;11.724;2023-07-30T05:07:22;6.57;;;4.90;;
3487;SDS011;38546;48.170;11.724;2023-07-30T05:10:11;5.83;;;5.33;;
3487;SDS011;38546;48.170;11.724;2023-07-30T05:13:00;5.80;;;4.90;;
3487;SDS011;38546;48.170;11.724;2023-07-30T05:15:49;6.00;;;5.40;;
3487;SDS011;38546;48.170;11.724;2023-07-30T05:18:38;5.47;;;4.97;;
3487;SDS011;38546;48.170;11.724;2023-07-30T05:21:27;7.20;;;5.17;;
3487;SDS011;38546;48.170;11.724;2023-07-30T05:24:16;5.60;;;4.40;;
3487;SDS011;38546;48.170;11.724;2023-07-30T05:27:06;7.43;;;5.10;;
3487;SDS011;38546;48.170;11.724;2023-07-30T05:29:55;4.20;;;3.80;;
3487;SDS011;38546;48.170;11.724;2023-07-30T05:32:45;4.30;;;3.90;;
3487;SDS011;38546;48.170;11.724;2023-07-30T05:35:34;4.00;;;3.70;;
3487;SDS011;38546;48.170;11.724;2023-07-30T05:38:23;4.10;;;3.80;;
3487;SDS011;38546;48.170;11.724;2023-07-30T05:41:13;4.63;;;3.30;;
3487;SDS011;38546;48.170;11.724;2023-07-30T05:44:02;4.73;;;4.33;;
3487;SDS011;38546;48.170;11.724;2023-07-30T05:46:52;3.77;;;3.47;;
3487;SDS011;38546;48.170;11.724;2023-07-30T05:49:41;4.27;;;3.50;;
3487;SDS011;38546;48.170;11.724;2023-07-30T05:52:30;4.33;;;3.93;;
3487;SDS011;38546;48.170;11.724;2023-07-30T05:55:19;3.90;;;3.50;;
3487;SDS011;38546;48.170;11.724;2023-07-30T05:58:08;6.17;;;3.27;;
3487;SDS011;38546;48.170;11.724;2023-07-30T06:00:58;6.33;;;4.03;;
3487;SDS011;38546;48.170;11.724;2023-07-30T06:03:48;5.70;;;3.30;;
3487;SDS011;38546;48.170;11.724;2023-07-30T06:06:37;3.97;;;3.57;;
3487;SDS011;38546;48.170;11.724;2023-07-30T06:09:26;3.27;;;3.07;;
3487;SDS011;38546;48.170;11.724;2023-07-30T06:12:16;3.57;;;3.37;;
3487;SDS011;38546;48.170;11.724;2023-07-30T06:15:05;4.10;;;3.30;;
3487;SDS011;38546;48.170;11.724;2023-07-30T06:17:57;3.53;;;3.30;;
3487;SDS011;38546;48.170;11.724;2023-07-30T06:20:46;5.20;;;3.20;;
3487;SDS011;38546;48.170;11.724;2023-07-30T06:23:35;3.17;;;2.93;;
3487;SDS011;38546;48.170;11.724;2023-07-30T06:26:24;3.10;;;2.80;;
3487;SDS011;38546;48.170;11.724;2023-07-30T06:29:13;3.00;;;2.80;;
3487;SDS011;38546;48.170;11.724;2023-07-30T06:32:02;3.00;;;2.80;;
3487;SDS011;38546;48.170;11.724;2023-07-30T06:34:51;4.07;;;2.93;;
3487;SDS011;38546;48.170;11.724;2023-07-30T06:37:40;3.13;;;2.93;;
3487;SDS011;38546;48.170;11.724;2023-07-30T06:40:29;2.80;;;2.60;;
3487;SDS011;38546;48.170;11.724;2023-07-30T06:43:18;3.97;;;2.80;;
3487;SDS011;38546;48.170;11.724;2023-07-30T06:46:07;3.47;;;3.00;;
3487;SDS011;38546;48.170;11.724;2023-07-30T06:48:56;2.90;;;2.70;;
3487;SDS011;38546;48.170;11.724;2023-07-30T06:51:45;2.53;;;2.33;;
3487;SDS011;38546;48.170;11.724;2023-07-30T06:54:34;2.87;;;2.10;;
3487;SDS011;38546;48.170;11.724;2023-07-30T06:57:23;2.53;;;2.33;;
3487;SDS011;38546;48.170;11.724;2023-07-30T07:00:12;3.10;;;2.90;;
3487;SDS011;38546;48.170;11.724;2023-07-30T07:03:07;2.87;;;2.67;;
3487;SDS011;38546;48.170;11.724;2023-07-30T07:05:57;4.83;;;2.73;;
3487;SDS011;38546;48.170;11.724;2023-07-30T07:08:46;2.30;;;2.20;;
3487;SDS011;38546;48.170;11.724;2023-07-30T07:11:35;2.60;;;2.40;;
3487;SDS011;38546;48.170;11.724;2023-07-30T07:14:24;2.97;;;1.73;;
3487;SDS011;38546;48.170;11.724;2023-07-30T07:17:13;2.20;;;2.10;;
3487;SDS011;38546;48.170;11.724;2023-07-30T07:20:03;3.17;;;2.87;;
3487;SDS011;38546;48.170;11.724;2023-07-30T07:22:55;2.33;;;2.10;;
3487;SDS011;38546;48.170;11.724;2023-07-30T07:25:44;2.23;;;2.13;;
3487;SDS011;38546;48.170;11.724;2023-07-30T07:28:33;3.00;;;2.80;;
3487;SDS011;38546;48.170;11.724;2023-07-30T07:31:23;2.50;;;2.30;;
3487;SDS011;38546;48.170;11.724;2023-07-30T07:34:11;3.60;;;2.70;;
3487;SDS011;38546;48.170;11.724;2023-07-30T07:37:01;2.50;;;2.30;;
3487;SDS011;38546;48.170;11.724;2023-07-30T07:39:50;3.00;;;2.80;;
3487;SDS011;38546;48.170;11.724;2023-07-30T07:42:40;2.80;;;2.60;;
3487;SDS011;38546;48.170;11.724;2023-07-30T07:45:29;2.43;;;2.33;;
3487;SDS011;38546;48.170;11.724;2023-07-30T07:48:18;2.60;;;2.40;;
3487;SDS011;38546;48.170;11.724;2023-07-30T07:51:08;2.97;;;2.77;;
3487;SDS011;38546;48.170;11.724;2023-07-30T07:53:59;2.40;;;2.20;;
3487;SDS011;38546;48.170;11.724;2023-07-30T07:56:48;2.67;;;2.57;;
3487;SDS011;38546;48.170;11.724;2023-07-30T07:59:37;3.13;;;2.60;;
3487;SDS011;38546;48.170;11.724;2023-07-30T08:02:27;3.70;;;2.47;;
3487;SDS011;38546;48.170;11.724;2023-07-30T08:05:16;2.80;;;2.60;;
3487;SDS011;38546;48.170;11.724;2023-07-30T08:08:06;2.40;;;2.20;;
3487;SDS011;38546;48.170;11.724;2023-07-30T08:10:55;3.00;;;2.80;;
3487;SDS011;38546;48.170;11.724;2023-07-30T08:13:44;3.00;;;2.53;;
3487;SDS011;38546;48.170;11.724;2023-07-30T08:16:34;3.20;;;3.00;;
3487;SDS011;38546;48.170;11.724;2023-07-30T08:19:23;3.90;;;2.37;;
3487;SDS011;38546;48.170;11.724;2023-07-30T08:22:12;2.67;;;2.47;;
3487;SDS011;38546;48.170;11.724;2023-07-30T08:25:02;3.37;;;3.07;;
3487;SDS011;38546;48.170;11.724;2023-07-30T08:27:52;5.10;;;2.80;;
3487;SDS011;38546;48.170;11.724;2023-07-30T08:30:41;2.67;;;2.50;;
3487;SDS011;38546;48.170;11.724;2023-07-30T08:33:30;2.67;;;2.47;;
3487;SDS011;38546;48.170;11.724;2023-07-30T08:36:19;2.73;;;2.53;;
3487;SDS011;38546;48.170;11.724;2023-07-30T08:39:09;2.37;;;2.27;;
3487;SDS011;38546;48.170;11.724;2023-07-30T08:41:58;2.70;;;2.50;;
3487;SDS011;38546;48.170;11.724;2023-07-30T08:44:48;2.77;;;2.57;;
3487;SDS011;38546;48.170;11.724;2023-07-30T08:47:39;3.00;;;2.70;;
3487;SDS011;38546;48.170;11.724;2023-07-30T08:50:30;2.20;;;2.10;;
3487;SDS011;38546;48.170;11.724;2023-07-30T08:53:20;4.57;;;2.13;;
3487;SDS011;38546;48.170;11.724;2023-07-30T08:56:10;2.80;;;2.60;;
3487;SDS011;38546;48.170;11.724;2023-07-30T08:59:00;2.67;;;2.47;;
3487;SDS011;38546;48.170;11.724;2023-07-30T09:01:52;2.97;;;2.77;;
3487;SDS011;38546;48.170;11.724;2023-07-30T09:04:44;2.77;;;2.57;;
3487;SDS011;38546;48.170;11.724;2023-07-30T09:07:37;2.60;;;2.40;;
3487;SDS011;38546;48.170;11.724;2023-07-30T09:10:26;2.70;;;2.50;;
3487;SDS011;38546;48.170;11.724;2023-07-30T09:13:23;2.37;;;2.17;;
3487;SDS011;38546;48.170;11.724;2023-07-30T09:16:13;2.27;;;2.17;;
3487;SDS011;38546;48.170;11.724;2023-07-30T09:19:03;2.30;;;2.20;;
3487;SDS011;38546;48.170;11.724;2023-07-30T09:21:55;1.90;;;1.80;;
3487;SDS011;38546;48.170;11.724;2023-07-30T09:24:45;2.30;;;2.20;;
3487;SDS011;38546;48.170;11.724;2023-07-30T09:27:34;2.60;;;2.40;;
3487;SDS011;38546;48.170;11.724;2023-07-30T09:30:23;2.33;;;2.23;;
3487;SDS011;38546;48.170;11.724;2023-07-30T09:33:17;2.30;;;2.20;;
3487;SDS011;38546;48.170;11.724;2023-07-30T09:36:08;2.70;;;2.50;;
3487;SDS011;38546;48.170;11.724;2023-07-30T09:38:58;3.87;;;2.30;;
3487;SDS011;38546;48.170;11.724;2023-07-30T09:41:47;2.37;;;2.20;;
3487;SDS011;38546;48.170;11.724;2023-07-30T09:44:38;2.40;;;2.20;;
3487;SDS011;38546;48.170;11.724;2023-07-30T09:47:30;2.27;;;2.17;;
3487;SDS011;38546;48.170;11.724;2023-07-30T09:50:20;2.17;;;2.07;;
3487;SDS011;38546;48.170;11.724;2023-07-30T09:53:10;2.20;;;2.10;;
3487;SDS011;38546;48.170;11.724;2023-07-30T09:56:02;2.47;;;2.37;;
3487;SDS011;38546;48.170;11.724;2023-07-30T09:58:52;2.40;;;2.30;;
3487;SDS011;38546;48.170;11.724;2023-07-30T10:01:46;2.60;;;2.40;;
3487;SDS011;38546;48.170;11.724;2023-07-30T10:04:39;2.47;;;2.27;;
3487;SDS011;38546;48.170;11.724;2023-07-30T10:07:32;2.20;;;2.10;;
3487;SDS011;38546;48.170;11.724;2023-07-30T10:10:22;3.03;;;2.83;;
3487;SDS011;38546;48.170;11.724;2023-07-30T10:13:14;2.23;;;2.13;;
3487;SDS011;38546;48.170;11.724;2023-07-30T10:16:12;2.50;;;2.30;;
3487;SDS011;38546;48.170;11.724;2023-07-30T10:19:02;2.47;;;2.27;;
3487;SDS011;38546;48.170;11.724;2023-07-30T10:21:53;3.80;;;1.90;;
3487;SDS011;38546;48.170;11.724;2023-07-30T10:24:59;2.63;;;2.43;;
3487;SDS011;38546;48.170;11.724;2023-07-30T10:27:51;2.87;;;2.57;;
3487;SDS011;38546;48.170;11.724;2023-07-30T10:30:41;3.70;;;2.53;;
3487;SDS011;38546;48.170;11.724;2023-07-30T10:33:53;3.10;;;2.47;;
3487;SDS011;38546;48.170;11.724;2023-07-30T10:36:46;2.23;;;2.10;;
3487;SDS011;38546;48.170;11.724;2023-07-30T10:39:38;3.63;;;2.67;;
3487;SDS011;38546;48.170;11.724;2023-07-30T10:42:33;2.90;;;2.70;;
3487;SDS011;38546;48.170;11.724;2023-07-30T10:45:25;2.40;;;2.20;;
3487;SDS011;38546;48.170;11.724;2023-07-30T10:48:15;2.10;;;2.00;;
3487;SDS011;38546;48.170;11.724;2023-07-30T10:51:06;2.80;;;2.27;;
3487;SDS011;38546;48.170;11.724;2023-07-30T10:53:57;2.80;;;2.30;;
3487;SDS011;38546;48.170;11.724;2023-07-30T10:56:47;3.53;;;2.30;;
3487;SDS011;38546;48.170;11.724;2023-07-30T10:59:37;2.20;;;2.10;;
3487;SDS011;38546;48.170;11.724;2023-07-30T11:02:28;1.77;;;1.67;;
3487;SDS011;38546;48.170;11.724;2023-07-30T11:05:19;2.20;;;2.10;;
3487;SDS011;38546;48.170;11.724;2023-07-30T11:08:08;2.77;;;2.57;;
3487;SDS011;38546;48.170;11.724;2023-07-30T11:10:57;2.63;;;2.10;;
3487;SDS011;38546;48.170;11.724;2023-07-30T11:13:47;2.23;;;2.10;;
3487;SDS011;38546;48.170;11.724;2023-07-30T11:16:36;2.20;;;2.10;;
3487;SDS011;38546;48.170;11.724;2023-07-30T11:19:28;2.40;;;2.20;;
3487;SDS011;38546;48.170;11.724;2023-07-30T11:22:18;2.90;;;2.13;;
3487;SDS011;38546;48.170;11.724;2023-07-30T11:25:23;2.13;;;2.00;;
3487;SDS011;38546;48.170;11.724;2023-07-30T11:28:12;2.30;;;2.20;;
3487;SDS011;38546;48.170;11.724;2023-07-30T11:31:02;2.33;;;2.13;;
3487;SDS011;38546;48.170;11.724;2023-07-30T11:33:58;2.00;;;1.90;;
3487;SDS011;38546;48.170;11.724;2023-07-30T11:36:48;2.40;;;2.20;;
3487;SDS011;38546;48.170;11.724;2023-07-30T11:39:38;1.87;;;1.77;;
3487;SDS011;38546;48.170;11.724;2023-07-30T11:42:28;2.03;;;1.80;;
3487;SDS011;38546;48.170;11.724;2023-07-30T11:45:23;2.30;;;2.20;;
3487;SDS011;38546;48.170;11.724;2023-07-30T11:48:13;2.97;;;2.63;;
3487;SDS011;38546;48.170;11.724;2023-07-30T11:51:03;2.67;;;2.30;;
3487;SDS011;38546;48.170;11.724;2023-07-30T11:53:53;2.50;;;2.30;;
3487;SDS011;38546;48.170;11.724;2023-07-30T11:56:53;2.20;;;2.10;;
3487;SDS011;38546;48.170;11.724;2023-07-30T11:59:44;2.57;;;2.37;;
3487;SDS011;38546;48.170;11.724;2023-07-30T12:02:35;2.40;;;2.30;;
3487;SDS011;38546;48.170;11.724;2023-07-30T12:05:37;2.67;;;2.47;;
3487;SDS011;38546;48.170;11.724;2023-07-30T12:08:27;3.07;;;2.27;;
3487;SDS011;38546;48.170;11.724;2023-07-30T12:11:18;2.37;;;1.97;;
3487;SDS011;38546;48.170;11.724;2023-07-30T12:14:10;2.53;;;2.33;;
3487;SDS011;38546;48.170;11.724;2023-07-30T12:16:59;2.60;;;2.40;;
3487;SDS011;38546;48.170;11.724;2023-07-30T12:19:49;2.20;;;2.10;;
3487;SDS011;38546;48.170;11.724;2023-07-30T12:22:38;3.07;;;2.43;;
3487;SDS011;38546;48.170;11.724;2023-07-30T12:25:28;2.17;;;2.07;;
3487;SDS011;38546;48.170;11.724;2023-07-30T12:28:17;2.20;;;1.90;;
3487;SDS011;38546;48.170;11.724;2023-07-30T12:31:06;2.40;;;2.20;;
3487;SDS011;38546;48.170;11.724;2023-07-30T12:33:55;2.33;;;2.20;;
3487;SDS011;38546;48.170;11.724;2023-07-30T12:36:45;2.40;;;2.20;;
3487;SDS011;38546;48.170;11.724;2023-07-30T12:39:35;2.67;;;2.47;;
3487;SDS011;38546;48.170;11.724;2023-07-30T12:42:24;3.07;;;2.50;;
3487;SDS011;38546;48.170;11.724;2023-07-30T12:45:14;2.33;;;2.20;;
3487;SDS011;38546;48.170;11.724;2023-07-30T12:48:04;2.63;;;2.30;;
3487;SDS011;38546;48.170;11.724;2023-07-30T12:50:54;2.20;;;2.07;;
3487;SDS011;38546;48.170;11.724;2023-07-30T12:53:43;2.53;;;2.40;;
3487;SDS011;38546;48.170;11.724;2023-07-30T12:56:33;2.50;;;2.40;;
3487;SDS011;38546;48.170;11.724;2023-07-30T12:59:22;6.00;;;2.37;;
3487;SDS011;38546;48.170;11.724;2023-07-30T13:02:11;2.33;;;2.23;;
3487;SDS011;38546;48.170;11.724;2023-07-30T13:05:00;2.73;;;2.57;;
3487;SDS011;38546;48.170;11.724;2023-07-30T13:07:50;2.43;;;2.27;;
3487;SDS011;38546;48.170;11.724;2023-07-30T13:10:39;2.20;;;2.10;;
3487;SDS011;38546;48.170;11.724;2023-07-30T13:13:28;2.43;;;2.30;;
3487;SDS011;38546;48.170;11.724;2023-07-30T13:16:18;2.90;;;2.10;;
3487;SDS011;38546;48.170;11.724;2023-07-30T13:19:08;2.23;;;2.10;;
3487;SDS011;38546;48.170;11.724;2023-07-30T13:21:58;2.40;;;2.30;;
3487;SDS011;38546;48.170;11.724;2023-07-30T13:24:47;2.70;;;2.50;;
3487;SDS011;38546;48.170;11.724;2023-07-30T13:27:36;3.20;;;2.90;;
3487;SDS011;38546;48.170;11.724;2023-07-30T13:30:25;2.40;;;2.30;;
3487;SDS011;38546;48.170;11.724;2023-07-30T13:33:15;2.70;;;2.60;;
3487;SDS011;38546;48.170;11.724;2023-07-30T13:36:05;2.70;;;2.50;;
3487;SDS011;38546;48.170;11.724;2023-07-30T13:38:54;2.53;;;2.33;;
3487;SDS011;38546;48.170;11.724;2023-07-30T13:41:44;3.13;;;2.83;;
3487;SDS011;38546;48.170;11.724;2023-07-30T13:44:33;4.03;;;2.70;;
3487;SDS011;38546;48.170;11.724;2023-07-30T13:47:22;3.00;;;2.50;;
3487;SDS011;38546;48.170;11.724;2023-07-30T13:50:12;3.40;;;2.60;;
3487;SDS011;38546;48.170;11.724;2023-07-30T13:53:02;2.90;;;2.70;;
3487;SDS011;38546;48.170;11.724;2023-07-30T13:55:51;3.03;;;2.83;;
3487;SDS011;38546;48.170;11.724;2023-07-30T13:58:41;2.43;;;2.23;;
3487;SDS011;38546;48.170;11.724;2023-07-30T14:01:30;2.73;;;2.50;;
3487;SDS011;38546;48.170;11.724;2023-07-30T14:04:19;3.10;;;2.60;;
3487;SDS011;38546;48.170;11.724;2023-07-30T14:07:09;3.93;;;2.90;;
3487;SDS011;38546;48.170;11.724;2023-07-30T14:09:59;3.47;;;3.17;;
3487;SDS011;38546;48.170;11.724;2023-07-30T14:12:48;5.77;;;3.77;;
3487;SDS011;38546;48.170;11.724;2023-07-30T14:15:38;4.50;;;3.30;;
3487;SDS011;38546;48.170;11.724;2023-07-30T14:18:27;3.73;;;3.43;;
3487;SDS011;38546;48.170;11.724;2023-07-30T14:21:16;2.87;;;2.67;;
3487;SDS011;38546;48.170;11.724;2023-07-30T14:24:06;3.67;;;3.20;;
3487;SDS011;38546;48.170;11.724;2023-07-30T14:26:55;3.27;;;2.97;;
3487;SDS011;38546;48.170;11.724;2023-07-30T14:29:44;3.37;;;3.17;;
3487;SDS011;38546;48.170;11.724;2023-07-30T14:32:34;2.57;;;2.37;;
3487;SDS011;38546;48.170;11.724;2023-07-30T14:35:24;3.40;;;3.10;;
3487;SDS011;38546;48.170;11.724;2023-07-30T14:38:14;3.23;;;2.70;;
3487;SDS011;38546;48.170;11.724;2023-07-30T14:41:03;3.80;;;2.97;;
3487;SDS011;38546;48.170;11.724;2023-07-30T14:43:54;2.80;;;2.53;;
3487;SDS011;38546;48.170;11.724;2023-07-30T14:46:43;3.33;;;3.13;;
3487;SDS011;38546;48.170;11.724;2023-07-30T14:49:32;2.33;;;2.13;;
3487;SDS011;38546;48.170;11.724;2023-07-30T14:52:23;3.00;;;2.80;;
3487;SDS011;38546;48.170;11.724;2023-07-30T14:55:12;2.47;;;2.27;;
3487;SDS011;38546;48.170;11.724;2023-07-30T14:58:01;3.80;;;3.10;;
3487;SDS011;38546;48.170;11.724;2023-07-30T15:00:52;3.10;;;2.47;;
3487;SDS011;38546;48.170;11.724;2023-07-30T15:03:41;2.50;;;2.30;;
3487;SDS011;38546;48.170;11.724;2023-07-30T15:06:31;2.73;;;2.40;;
3487;SDS011;38546;48.170;11.724;2023-07-30T15:09:21;5.20;;;2.63;;
3487;SDS011;38546;48.170;11.724;2023-07-30T15:12:10;2.40;;;2.30;;
3487;SDS011;38546;48.170;11.724;2023-07-30T15:15:00;2.90;;;2.60;;
3487;SDS011;38546;48.170;11.724;2023-07-30T15:17:49;2.53;;;2.40;;
3487;SDS011;38546;48.170;11.724;2023-07-30T15:20:38;2.47;;;2.33;;
3487;SDS011;38546;48.170;11.724;2023-07-30T15:23:28;2.93;;;2.70;;
3487;SDS011;38546;48.170;11.724;2023-07-30T15:26:17;3.13;;;2.40;;
3487;SDS011;38546;48.170;11.724;2023-07-30T15:29:06;2.37;;;2.27;;
3487;SDS011;38546;48.170;11.724;2023-07-30T15:31:56;4.27;;;2.67;;
3487;SDS011;38546;48.170;11.724;2023-07-30T15:34:46;2.40;;;2.30;;
3487;SDS011;38546;48.170;11.724;2023-07-30T15:37:36;2.83;;;2.63;;
3487;SDS011;38546;48.170;11.724;2023-07-30T15:40:26;2.80;;;2.60;;
3487;SDS011;38546;48.170;11.724;2023-07-30T15:43:15;2.50;;;2.40;;
3487;SDS011;38546;48.170;11.724;2023-07-30T15:46:07;2.90;;;2.77;;
3487;SDS011;38546;48.170;11.724;2023-07-30T15:48:56;3.43;;;3.13;;
3487;SDS011;38546;48.170;11.724;2023-07-30T15:51:46;6.23;;;3.00;;
3487;SDS011;38546;48.170;11.724;2023-07-30T15:54:36;2.30;;;2.20;;
3487;SDS011;38546;48.170;11.724;2023-07-30T15:57:27;2.80;;;2.60;;
3487;SDS011;38546;48.170;11.724;2023-07-30T16:00:16;4.00;;;3.00;;
3487;SDS011;38546;48.170;11.724;2023-07-30T16:03:07;4.47;;;2.93;;
3487;SDS011;38546;48.170;11.724;2023-07-30T16:05:56;2.70;;;2.50;;
3487;SDS011;38546;48.170;11.724;2023-07-30T16:08:45;3.27;;;2.63;;
3487;SDS011;38546;48.170;11.724;2023-07-30T16:11:35;3.03;;;2.60;;
3487;SDS011;38546;48.170;11.724;2023-07-30T16:14:27;2.57;;;2.27;;
3487;SDS011;38546;48.170;11.724;2023-07-30T16:17:16;2.90;;;2.60;;
3487;SDS011;38546;48.170;11.724;2023-07-30T16:20:05;3.00;;;2.87;;
3487;SDS011;38546;48.170;11.724;2023-07-30T16:22:57;3.50;;;3.20;;
3487;SDS011;38546;48.170;11.724;2023-07-30T16:25:46;3.70;;;3.00;;
3487;SDS011;38546;48.170;11.724;2023-07-30T16:28:34;3.43;;;2.80;;
3487;SDS011;38546;48.170;11.724;2023-07-30T16:31:23;3.10;;;2.80;;
3487;SDS011;38546;48.170;11.724;2023-07-30T16:34:12;2.83;;;2.57;;
3487;SDS011;38546;48.170;11.724;2023-07-30T16:37:02;3.10;;;2.90;;
3487;SDS011;38546;48.170;11.724;2023-07-30T16:39:51;3.40;;;3.10;;
3487;SDS011;38546;48.170;11.724;2023-07-30T16:42:43;3.20;;;3.00;;
3487;SDS011;38546;48.170;11.724;2023-07-30T16:45:32;7.27;;;2.90;;
3487;SDS011;38546;48.170;11.724;2023-07-30T16:48:22;3.70;;;2.60;;
3487;SDS011;38546;48.170;11.724;2023-07-30T16:51:10;2.70;;;2.50;;
3487;SDS011;38546;48.170;11.724;2023-07-30T16:53:59;3.47;;;3.17;;
3487;SDS011;38546;48.170;11.724;2023-07-30T16:56:48;3.40;;;3.20;;
3487;SDS011;38546;48.170;11.724;2023-07-30T16:59:40;3.10;;;2.90;;
3487;SDS011;38546;48.170;11.724;2023-07-30T17:02:29;2.90;;;2.63;;
3487;SDS011;38546;48.170;11.724;2023-07-30T17:05:18;2.60;;;2.40;;